メインページ
METAR-TAF:

METAR-TAF

空港 :

バックホルツ陸軍飛行場

クェゼリン環礁, マーシャル諸島

緯度: 08-43N, 経度: 167-44E, 海抜: 3m

現時点の気象観測

当レポートは19分前の05:00(UTC)に作成
北東の風 7kt
気温 29°C
湿度 84%
気圧 1009 hPa
視程: 16.1km
晴天

METAR: PKWA 200500Z AUTO 05007KT 10SM CLR 29/26 A2980 RMK AO2 T02850258

時間: 17:19 (05:19 UTC)

予報

当レポートは5時間49分前の23:30(UTC)に作成
予報は20日の 00時(UTC)から 20日の 24時(UTC)まで有効
北東の風 14kt
視程: 10km
高度1800ftの雲はほとんどない
高度4000ftの雲は散在している
高度12000ftの雲は散在している
近辺でにわか雨
20日の 01時(UTC)から 20日の 05時(UTC)まで一時的に
視程: 8.0km
高度1400ftの雲は散在している
高度2500ftの千切れ雲あり
にわか雨

TAF: PKWA 192330Z 2000/2024 04014KT P6SM VCSH FEW018 SCT040 SCT120 TEMPO 2001/2005 5SM SHRA SCT014 BKN025

4,000以上の空港の気象観測と天気予報(METAR報とTAF報)

利用可能な観測所は地図上に黄色い丸と赤い丸で示す。

丸の上にカーソルを重ねると観測所名を参照できる。

次にクリックすると気象観測と天気予報を参照できる。

マップの切り替え:黒色「×」印の緑ボタンをクリックして拡大、「-」印の緑ボタンをクリックして縮小、緑色の三角印をクリックして隣りの地図に切り替え


METAR-TAF: